Time;durP1;ratioP1;P1;durP2;ratioP2;P2;SDS_P1;SDS_P2;PMS_P1;PMS_P2;Temp;Humidity;BMP_temperature;BMP_pressure;BME280_temperature;BME280_humidity;BME280_pressure;Samples;Min_cycle;Max_cycle;Signal;HPM_P1;HPM_P2
2021/09/03 00:01:38;;;;;;;2.65;2.40;;;11.50;78.70;;;;;;5014795;28;20099;-71
2021/09/03 00:04:04;;;;;;;4.97;2.67;;;11.50;79.10;;;;;;5014160;28;20025;-72
2021/09/03 00:06:30;;;;;;;2.78;2.28;;;11.40;79.30;;;;;;5014255;28;20353;-71
2021/09/03 00:08:55;;;;;;;4.78;2.40;;;11.40;79.50;;;;;;5014053;28;20041;-71
2021/09/03 00:11:21;;;;;;;4.57;2.72;;;11.30;79.70;;;;;;5014117;28;20423;-71
2021/09/03 00:13:47;;;;;;;2.85;2.53;;;11.30;80.00;;;;;;4996542;28;20040;-72
2021/09/03 00:16:13;;;;;;;3.88;2.40;;;11.20;80.10;;;;;;5013950;28;20026;-72
2021/09/03 00:18:39;;;;;;;3.55;2.60;;;11.20;80.40;;;;;;5013882;28;20025;-72
2021/09/03 00:21:04;;;;;;;3.25;2.92;;;11.10;80.50;;;;;;4996425;28;20025;-70
2021/09/03 00:23:30;;;;;;;5.70;2.67;;;11.00;80.60;;;;;;5014345;28;20065;-70
2021/09/03 00:25:56;;;;;;;4.78;2.80;;;11.00;80.80;;;;;;5013896;28;20026;-71
2021/09/03 00:28:22;;;;;;;4.07;2.90;;;11.00;81.10;;;;;;5013630;28;20026;-71
2021/09/03 00:30:48;;;;;;;4.43;3.00;;;10.90;81.30;;;;;;5013622;28;20032;-71
2021/09/03 00:33:14;;;;;;;4.82;3.25;;;10.90;81.50;;;;;;5013612;28;20033;-71
2021/09/03 00:35:40;;;;;;;3.97;3.20;;;10.90;81.70;;;;;;5013528;28;20041;-71
2021/09/03 00:38:05;;;;;;;9.32;5.22;;;10.80;81.90;;;;;;5013884;28;20084;-70
2021/09/03 00:40:31;;;;;;;7.10;5.00;;;10.80;82.10;;;;;;5013476;28;20407;-71
2021/09/03 00:42:57;;;;;;;8.18;5.60;;;10.80;82.20;;;;;;5013161;28;20496;-71
2021/09/03 00:45:23;;;;;;;12.23;6.20;;;10.70;82.40;;;;;;4995957;28;20109;-71
2021/09/03 00:47:48;;;;;;;10.43;5.93;;;10.70;82.60;;;;;;5013275;28;20357;-71
2021/09/03 00:50:14;;;;;;;7.28;5.22;;;10.70;82.70;;;;;;5013298;28;20361;-71
2021/09/03 00:52:40;;;;;;;7.90;4.47;;;10.60;82.80;;;;;;4995924;28;20030;-70
2021/09/03 00:55:07;;;;;;;7.95;4.65;;;10.60;82.90;;;;;;5013130;28;20168;-71
2021/09/03 00:57:33;;;;;;;6.53;4.30;;;10.60;83.10;;;;;;5013178;28;20029;-71
2021/09/03 00:59:58;;;;;;;7.60;4.40;;;10.60;83.20;;;;;;5013166;28;20018;-70
2021/09/03 01:02:24;;;;;;;6.47;4.05;;;10.60;83.30;;;;;;5013414;28;20029;-70
2021/09/03 01:04:50;;;;;;;10.40;4.50;;;10.60;83.40;;;;;;5013204;28;20500;-71
2021/09/03 01:07:16;;;;;;;5.97;3.90;;;10.50;83.60;;;;;;5013180;28;20029;-70
2021/09/03 01:09:42;;;;;;;8.20;4.50;;;10.50;83.90;;;;;;5013206;28;20022;-71
2021/09/03 01:12:08;;;;;;;8.88;4.13;;;10.50;83.90;;;;;;5012953;28;20472;-70
2021/09/03 01:14:34;;;;;;;7.10;3.90;;;10.50;84.00;;;;;;5012939;28;20037;-70
2021/09/03 01:17:00;;;;;;;7.70;3.80;;;10.40;84.00;;;;;;5012887;28;20405;-71
2021/09/03 01:19:26;;;;;;;4.72;3.70;;;10.40;84.80;;;;;;5012707;28;20097;-71
2021/09/03 01:21:52;;;;;;;4.70;4.07;;;10.40;84.30;;;;;;5012635;28;20469;-71
2021/09/03 01:24:18;;;;;;;9.85;4.57;;;10.40;84.40;;;;;;4995117;28;20032;-71
2021/09/03 01:26:44;;;;;;;10.50;4.85;;;10.40;84.60;;;;;;5012582;28;20041;-71
2021/09/03 01:29:10;;;;;;;5.93;4.18;;;10.40;84.60;;;;;;5012692;28;20492;-71
2021/09/03 01:31:36;;;;;;;5.60;3.60;;;10.30;84.60;;;;;;5012692;28;20429;-71
2021/09/03 01:34:01;;;;;;;4.80;3.30;;;10.30;84.60;;;;;;5012806;28;20472;-71
2021/09/03 01:36:31;;;;;;;3.97;3.05;;;10.30;84.60;;;;;;5012653;28;20026;-71
2021/09/03 01:38:58;;;;;;;6.97;3.33;;;10.20;84.70;;;;;;5012726;28;20030;-71
2021/09/03 01:41:24;;;;;;;6.20;3.20;;;10.20;84.70;;;;;;5012531;28;20097;-71
2021/09/03 01:43:50;;;;;;;3.45;3.10;;;10.10;84.90;;;;;;5012551;28;20126;-72
2021/09/03 01:46:15;;;;;;;5.30;3.00;;;10.10;85.00;;;;;;5012595;28;20508;-71
2021/09/03 01:48:41;;;;;;;6.45;3.17;;;10.10;85.10;;;;;;5012621;28;20030;-71
2021/09/03 01:51:07;;;;;;;4.32;3.60;;;10.10;85.20;;;;;;5012300;28;20029;-71
2021/09/03 01:53:33;;;;;;;4.75;3.40;;;10.10;85.20;;;;;;5012373;28;20108;-71
2021/09/03 01:55:58;;;;;;;8.48;3.35;;;10.00;85.10;;;;;;5012362;28;20025;-71
2021/09/03 01:58:24;;;;;;;7.80;3.38;;;10.00;85.30;;;;;;5012404;28;20026;-71
2021/09/03 02:00:50;;;;;;;3.60;3.20;;;9.90;85.40;;;;;;5012126;28;20036;-71
2021/09/03 02:03:16;;;;;;;4.72;3.05;;;9.90;85.50;;;;;;5012311;28;20053;-71
2021/09/03 02:05:42;;;;;;;7.13;3.60;;;9.90;85.70;;;;;;5012340;28;20132;-71
2021/09/03 02:08:08;;;;;;;6.82;4.07;;;9.80;85.70;;;;;;5012113;28;20484;-71
2021/09/03 02:10:34;;;;;;;5.88;3.70;;;9.80;85.90;;;;;;5012134;28;20032;-71
2021/09/03 02:13:00;;;;;;;4.72;3.63;;;9.80;86.10;;;;;;5012195;28;20104;-71
2021/09/03 02:15:25;;;;;;;5.97;3.58;;;9.80;86.20;;;;;;5011903;28;20108;-71
2021/09/03 02:17:51;;;;;;;8.63;3.92;;;9.80;86.40;;;;;;5011969;28;20080;-70
2021/09/03 02:20:17;;;;;;;4.47;3.50;;;9.70;86.50;;;;;;5011993;28;20029;-70
2021/09/03 02:22:44;;;;;;;5.35;3.72;;;9.70;87.20;;;;;;5012118;28;20065;-70
2021/09/03 02:25:10;;;;;;;4.70;3.80;;;9.70;86.80;;;;;;5012057;28;20030;-70
2021/09/03 02:27:36;;;;;;;6.72;3.58;;;9.70;86.90;;;;;;5011845;28;20482;-70
2021/09/03 02:30:02;;;;;;;6.68;4.38;;;9.70;87.10;;;;;;5011887;28;20101;-70
2021/09/03 02:32:28;;;;;;;7.60;4.70;;;9.60;87.20;;;;;;5011899;28;20457;-70
2021/09/03 02:34:54;;;;;;;7.25;5.05;;;9.60;87.30;;;;;;5012242;28;20041;-70
2021/09/03 02:37:20;;;;;;;6.22;4.90;;;9.60;87.40;;;;;;5011906;28;20065;-70
2021/09/03 02:39:45;;;;;;;7.28;4.25;;;9.60;88.10;;;;;;5011708;28;20849;-70
2021/09/03 02:42:11;;;;;;;7.13;4.72;;;9.60;87.70;;;;;;4994051;28;20519;-70
2021/09/03 02:44:37;;;;;;;4.90;3.80;;;9.60;87.70;;;;;;4994264;28;20168;-71
2021/09/03 02:47:02;;;;;;;4.70;3.70;;;9.60;87.90;;;;;;5011826;28;20033;-71
2021/09/03 02:49:28;;;;;;;7.13;3.63;;;9.60;88.10;;;;;;5011611;28;20029;-71
2021/09/03 02:51:54;;;;;;;3.63;2.95;;;9.60;88.10;;;;;;5011774;28;20764;-71
2021/09/03 02:54:20;;;;;;;6.18;3.20;;;9.60;88.00;;;;;;5011757;28;20476;-71
2021/09/03 02:56:45;;;;;;;7.85;3.50;;;9.60;87.80;;;;;;5011855;28;20026;-70
2021/09/03 02:59:11;;;;;;;6.05;3.63;;;9.60;88.00;;;;;;5011725;28;20026;-70
2021/09/03 03:01:37;;;;;;;6.38;3.70;;;9.60;88.00;;;;;;5011745;28;20034;-71
2021/09/03 03:04:02;;;;;;;4.00;3.20;;;9.60;88.00;;;;;;5011257;28;20385;-70
2021/09/03 03:06:28;;;;;;;14.18;3.83;;;9.60;88.00;;;;;;5013942;28;20026;-70
2021/09/03 03:08:54;;;;;;;10.48;3.60;;;9.50;88.00;;;;;;5015377;28;20026;-71
2021/09/03 03:11:19;;;;;;;4.30;3.30;;;9.60;88.00;;;;;;5015100;28;20106;-71
2021/09/03 03:13:51;;;;;;;4.93;3.55;;;9.60;88.00;;;;;;5014676;28;20029;-72
2021/09/03 03:16:16;;;;;;;6.78;4.03;;;9.60;88.00;;;;;;4997417;28;20364;-71
2021/09/03 03:18:43;;;;;;;7.90;5.28;;;9.60;88.00;;;;;;5014864;28;20022;-70
2021/09/03 03:21:09;;;;;;;7.95;3.85;;;9.70;88.80;;;;;;4997394;28;20448;-69
2021/09/03 03:23:34;;;;;;;5.60;3.63;;;10.00;89.00;;;;;;5014969;28;20104;-70
2021/09/03 03:26:02;;;;;;;5.07;3.60;;;10.50;88.30;;;;;;5014860;28;20097;-71
2021/09/03 03:28:28;;;;;;;7.53;3.30;;;11.20;87.00;;;;;;5014595;28;20018;-71
2021/09/03 03:30:53;;;;;;;5.60;3.40;;;11.80;84.90;;;;;;5014725;28;20096;-71
2021/09/03 03:33:19;;;;;;;7.47;3.53;;;12.60;82.60;;;;;;5014633;28;20050;-71
2021/09/03 03:35:45;;;;;;;5.90;3.30;;;13.30;80.10;;;;;;5014596;28;20079;-71
2021/09/03 03:38:12;;;;;;;10.15;4.97;;;14.10;77.60;;;;;;5014975;28;20423;-71
2021/09/03 03:40:38;;;;;;;7.57;3.88;;;15.00;75.10;;;;;;4996863;28;20495;-72
2021/09/03 03:43:03;;;;;;;4.97;2.95;;;15.80;72.50;;;;;;5014504;28;20050;-71
2021/09/03 03:45:30;;;;;;;10.57;3.30;;;16.60;70.10;;;;;;5014444;28;20053;-71
2021/09/03 03:47:56;;;;;;;8.93;3.42;;;17.40;67.60;;;;;;5014415;28;20109;-72
2021/09/03 03:50:22;;;;;;;7.80;3.83;;;18.20;65.50;;;;;;5015003;28;20449;-72
2021/09/03 03:52:47;;;;;;;7.22;3.53;;;19.00;63.30;;;;;;5014612;28;20721;-72
2021/09/03 03:55:13;;;;;;;13.95;4.70;;;19.70;61.30;;;;;;5014287;28;20033;-71
2021/09/03 03:57:39;;;;;;;4.95;3.35;;;20.40;59.40;;;;;;5013872;28;20108;-72
2021/09/03 04:00:05;;;;;;;6.60;3.00;;;21.20;57.60;;;;;;5014051;28;20018;-71
2021/09/03 04:02:31;;;;;;;5.47;3.13;;;21.80;55.80;;;;;;5013831;28;20034;-72
2021/09/03 04:04:57;;;;;;;7.10;3.30;;;22.40;54.30;;;;;;5013801;28;20088;-71
2021/09/03 04:07:22;;;;;;;6.38;2.75;;;23.10;52.80;;;;;;5013812;28;20487;-72
2021/09/03 04:09:48;;;;;;;5.45;2.63;;;23.80;51.40;;;;;;5013580;28;20022;-72
2021/09/03 04:12:14;;;;;;;5.45;3.03;;;24.40;50.00;;;;;;5013726;28;20106;-72
2021/09/03 04:14:40;;;;;;;10.60;2.78;;;24.80;48.70;;;;;;5013741;28;20460;-72
2021/09/03 04:17:06;;;;;;;9.88;2.70;;;25.30;47.70;;;;;;4995681;28;20030;-72
2021/09/03 04:19:32;;;;;;;7.53;3.45;;;25.90;46.70;;;;;;5013517;28;20037;-72
2021/09/03 04:21:58;;;;;;;6.28;3.70;;;26.40;45.80;;;;;;5013710;28;20037;-71
2021/09/03 04:24:24;;;;;;;5.63;2.80;;;26.80;45.00;;;;;;4995808;28;20148;-71
2021/09/03 04:26:49;;;;;;;4.55;2.35;;;27.40;44.30;;;;;;5013493;28;20389;-71
2021/09/03 04:29:15;;;;;;;5.90;2.85;;;27.90;43.50;;;;;;5013425;28;20026;-72
2021/09/03 04:31:41;;;;;;;9.15;3.47;;;28.40;42.80;;;;;;5013322;28;20484;-71
2021/09/03 04:34:09;;;;;;;7.10;2.80;;;28.80;42.10;;;;;;5013678;28;20132;-73
2021/09/03 04:36:35;;;;;;;8.27;3.88;;;29.30;41.50;;;;;;5012923;28;20037;-72
2021/09/03 04:39:01;;;;;;;6.68;3.25;;;29.70;40.80;;;;;;5013369;28;20034;-72
2021/09/03 04:41:27;;;;;;;6.53;3.10;;;30.20;40.30;;;;;;4995382;28;20778;-73
2021/09/03 04:43:52;;;;;;;9.95;4.03;;;30.60;39.70;;;;;;5013111;28;20033;-72
2021/09/03 04:46:18;;;;;;;7.35;3.10;;;30.90;39.30;;;;;;5012498;28;20352;-72
2021/09/03 04:48:44;;;;;;;6.88;3.10;;;31.20;38.80;;;;;;4995467;28;20460;-73
2021/09/03 04:51:09;;;;;;;7.47;3.03;;;31.60;38.30;;;;;;5012616;28;20030;-73
2021/09/03 04:53:35;;;;;;;8.43;3.65;;;32.00;38.10;;;;;;5012562;28;20116;-73
2021/09/03 04:56:01;;;;;;;9.05;3.53;;;32.30;37.60;;;;;;5012490;28;20022;-72
2021/09/03 04:58:26;;;;;;;5.80;3.03;;;32.70;37.30;;;;;;5012092;28;20044;-72
2021/09/03 05:00:52;;;;;;;7.78;3.20;;;32.90;36.80;;;;;;5012302;28;20461;-72
2021/09/03 05:03:18;;;;;;;7.40;2.90;;;33.20;36.50;;;;;;5012358;28;20061;-73
2021/09/03 05:05:44;;;;;;;7.75;3.00;;;33.50;36.20;;;;;;5012198;28;20378;-73
2021/09/03 05:08:09;;;;;;;7.50;3.78;;;33.80;36.00;;;;;;5012178;28;20036;-74
2021/09/03 05:10:35;;;;;;;7.43;3.10;;;34.10;35.70;;;;;;5012123;28;20022;-74
2021/09/03 05:13:01;;;;;;;3.88;2.35;;;34.30;35.30;;;;;;5012110;28;20100;-74
2021/09/03 05:15:36;;;;;;;9.23;3.28;;;34.50;35.00;;;;;;5012393;28;20341;-72
2021/09/03 05:18:02;;;;;;;8.82;3.25;;;34.60;34.60;;;;;;5012398;28;20022;-72
2021/09/03 05:20:28;;;;;;;10.43;3.10;;;34.90;34.70;;;;;;5011643;28;20072;-73
2021/09/03 05:22:54;;;;;;;11.40;3.40;;;35.10;34.40;;;;;;5011905;28;20026;-73
2021/09/03 05:25:20;;;;;;;7.57;2.80;;;35.30;34.20;;;;;;5012200;28;20026;-73
2021/09/03 05:27:45;;;;;;;10.20;3.00;;;35.50;33.90;;;;;;5011281;28;20033;-73
2021/09/03 05:30:13;;;;;;;8.82;3.30;;;35.80;33.80;;;;;;5011547;28;20040;-73
2021/09/03 05:32:39;;;;;;;17.05;3.20;;;35.90;33.50;;;;;;5011684;28;20026;-72
2021/09/03 05:35:06;;;;;;;11.00;3.65;;;36.10;33.30;;;;;;5001661;28;20027;-73
2021/09/03 05:37:32;;;;;;;6.18;2.63;;;36.40;33.20;;;;;;4999621;28;20076;-72
2021/09/03 05:40:00;;;;;;;5.15;2.50;;;36.60;33.00;;;;;;5000413;28;20022;-72
2021/09/03 05:42:26;;;;;;;8.32;3.30;;;36.80;32.70;;;;;;5000961;28;20107;-72
2021/09/03 05:44:51;;;;;;;6.30;3.00;;;36.90;32.50;;;;;;4999504;28;20057;-72
2021/09/03 05:47:17;;;;;;;11.23;3.92;;;37.00;32.40;;;;;;5000812;28;20025;-72
2021/09/03 05:49:43;;;;;;;6.63;3.10;;;37.30;32.30;;;;;;5001435;28;20550;-71
2021/09/03 05:52:09;;;;;;;4.28;2.70;;;37.50;32.20;;;;;;4999895;28;20023;-72
2021/09/03 05:54:34;;;;;;;9.82;3.00;;;37.70;31.90;;;;;;5000921;28;20018;-73
2021/09/03 05:57:00;;;;;;;6.47;2.63;;;37.90;31.90;;;;;;4983473;28;20113;-70
2021/09/03 05:59:26;;;;;;;6.57;3.33;;;38.10;31.70;;;;;;4999026;28;20412;-71
2021/09/03 06:01:51;;;;;;;4.72;2.45;;;38.20;31.50;;;;;;4999685;28;20042;-72
2021/09/03 06:04:17;;;;;;;11.35;3.75;;;38.30;31.30;;;;;;5000504;28;20371;-71
2021/09/03 06:06:44;;;;;;;4.63;2.70;;;38.40;31.20;;;;;;5001427;28;20023;-71
2021/09/03 06:09:11;;;;;;;7.35;3.13;;;38.50;31.20;;;;;;4999399;28;20030;-72
2021/09/03 06:11:37;;;;;;;8.45;3.25;;;38.60;31.20;;;;;;5000383;28;20117;-72
2021/09/03 06:14:03;;;;;;;8.07;3.83;;;38.60;31.00;;;;;;4983408;28;20596;-72
2021/09/03 06:16:28;;;;;;;7.10;4.22;;;38.70;30.70;;;;;;4999170;28;20046;-73
2021/09/03 06:18:54;;;;;;;6.47;4.45;;;38.80;30.70;;;;;;5000876;28;20049;-75
2021/09/03 06:21:20;;;;;;;7.60;3.25;;;38.80;30.40;;;;;;5000756;28;20055;-75
2021/09/03 06:23:46;;;;;;;9.07;3.90;;;38.90;30.50;;;;;;4999618;28;20027;-79
2021/09/03 06:26:12;;;;;;;4.57;3.45;;;38.90;30.30;;;;;;4999571;28;20424;-76
2021/09/03 06:28:37;;;;;;;6.93;2.60;;;38.90;30.80;;;;;;5000313;28;20473;-78
2021/09/03 06:31:03;;;;;;;4.35;2.90;;;39.00;30.30;;;;;;5004249;28;20026;-78
2021/09/03 06:33:29;;;;;;;4.82;3.03;;;39.00;30.10;;;;;;5011853;28;20357;-78
2021/09/03 06:35:55;;;;;;;5.18;2.83;;;39.00;30.20;;;;;;4993904;28;20407;-77
2021/09/03 06:38:20;;;;;;;5.88;3.00;;;38.90;30.10;;;;;;5012265;28;20073;-78
2021/09/03 06:40:46;;;;;;;13.75;2.38;;;38.90;30.10;;;;;;5013439;28;20018;-78
2021/09/03 06:43:12;;;;;;;6.35;2.65;;;38.80;30.00;;;;;;5014928;28;20061;-78
2021/09/03 06:45:38;;;;;;;4.68;2.20;;;38.70;30.10;;;;;;5015048;28;20666;-77
2021/09/03 06:48:04;;;;;;;5.45;2.88;;;38.60;30.00;;;;;;5014802;28;20416;-77
2021/09/03 06:50:29;;;;;;;8.40;4.75;;;38.60;30.30;;;;;;5015300;28;20030;-76
2021/09/03 06:52:55;;;;;;;5.20;2.30;;;38.40;30.30;;;;;;5014963;28;20072;-77
2021/09/03 06:55:21;;;;;;;4.43;2.05;;;38.20;30.10;;;;;;4996419;28;20388;-79
2021/09/03 06:57:47;;;;;;;4.70;2.10;;;38.10;30.00;;;;;;5014405;28;20033;-79
2021/09/03 07:00:13;;;;;;;10.13;2.78;;;38.00;29.90;;;;;;5014888;28;20026;-78
2021/09/03 07:02:38;;;;;;;7.75;2.13;;;37.90;30.10;;;;;;5014980;28;20033;-78
2021/09/03 07:05:05;;;;;;;7.10;1.70;;;37.70;30.10;;;;;;4997458;28;20385;-78
2021/09/03 07:07:31;;;;;;;3.97;2.00;;;37.60;30.00;;;;;;5014578;28;20022;-78
2021/09/03 07:09:57;;;;;;;2.17;1.85;;;37.40;30.00;;;;;;5015305;28;20036;-77
2021/09/03 07:12:23;;;;;;;4.60;2.55;;;37.20;30.20;;;;;;5015198;28;20017;-78
2021/09/03 07:14:49;;;;;;;5.50;2.03;;;37.10;30.50;;;;;;5015725;28;20105;-79
2021/09/03 07:17:15;;;;;;;4.53;2.40;;;36.80;30.40;;;;;;5015758;28;20026;-77
2021/09/03 07:19:41;;;;;;;3.20;1.90;;;36.60;31.10;;;;;;5014860;28;20033;-78
2021/09/03 07:22:07;;;;;;;9.95;3.63;;;36.50;30.50;;;;;;4997269;28;20034;-77
2021/09/03 07:24:33;;;;;;;5.60;2.72;;;36.30;30.90;;;;;;5014758;28;20022;-79
2021/09/03 07:27:00;;;;;;;5.50;2.60;;;36.10;30.90;;;;;;5014842;28;20018;-78
2021/09/03 07:29:26;;;;;;;10.48;3.17;;;35.90;30.90;;;;;;5014450;28;20030;-78
2021/09/03 07:31:51;;;;;;;5.18;2.45;;;35.70;30.90;;;;;;5014758;28;20049;-78
2021/09/03 07:34:17;;;;;;;6.40;3.38;;;35.50;30.80;;;;;;5014342;28;20065;-77
2021/09/03 07:36:43;;;;;;;5.25;2.17;;;35.40;31.10;;;;;;5014598;28;20109;-77
2021/09/03 07:39:09;;;;;;;3.20;1.63;;;35.10;31.10;;;;;;5014108;28;20033;-76
2021/09/03 07:41:35;;;;;;;5.07;2.67;;;34.70;31.10;;;;;;5014396;28;20034;-75
2021/09/03 07:44:00;;;;;;;5.88;2.72;;;34.50;31.30;;;;;;5014635;28;20026;-76
2021/09/03 07:46:26;;;;;;;5.38;2.30;;;34.20;32.10;;;;;;5014366;28;20472;-77
2021/09/03 07:48:52;;;;;;;9.95;2.50;;;33.60;31.60;;;;;;5014374;28;20061;-77
2021/09/03 07:51:18;;;;;;;6.55;2.28;;;33.40;32.10;;;;;;5013519;28;20372;-79
2021/09/03 07:53:44;;;;;;;2.42;1.60;;;33.10;32.10;;;;;;5014470;28;20030;-78
2021/09/03 07:56:10;;;;;;;4.05;2.10;;;32.90;32.30;;;;;;5014365;28;20034;-77
2021/09/03 07:58:36;;;;;;;6.82;1.55;;;32.50;32.40;;;;;;5013588;28;20472;-78
2021/09/03 08:01:02;;;;;;;8.98;8.23;;;32.30;32.80;;;;;;5013743;28;20084;-77
2021/09/03 08:03:29;;;;;;;5.28;1.65;;;32.00;33.00;;;;;;5013333;28;20029;-72
2021/09/03 08:05:55;;;;;;;4.13;1.55;;;31.70;33.10;;;;;;5013695;28;20368;-73
2021/09/03 08:08:21;;;;;;;4.03;1.70;;;31.40;32.90;;;;;;5013498;28;20026;-73
2021/09/03 08:10:47;;;;;;;4.32;1.88;;;31.10;33.10;;;;;;5013758;28;20072;-72
2021/09/03 08:13:13;;;;;;;2.88;1.92;;;31.00;33.90;;;;;;5013566;28;20076;-73
2021/09/03 08:15:39;;;;;;;1.30;1.20;;;30.90;33.60;;;;;;5013690;28;20836;-70
2021/09/03 08:18:06;;;;;;;3.40;1.70;;;30.60;33.20;;;;;;4995824;28;20365;-71
2021/09/03 08:20:32;;;;;;;2.75;1.60;;;30.40;33.60;;;;;;5013442;28;20025;-72
2021/09/03 08:22:59;;;;;;;5.25;1.83;;;30.30;33.70;;;;;;5013197;28;20080;-71
2021/09/03 08:25:25;;;;;;;2.92;1.63;;;30.20;34.20;;;;;;5013274;28;20025;-72
2021/09/03 08:27:51;;;;;;;3.58;1.58;;;30.10;34.20;;;;;;5013154;28;20038;-72
2021/09/03 08:30:19;;;;;;;9.77;1.80;;;30.00;34.50;;;;;;5013070;28;20084;-73
2021/09/03 08:32:45;;;;;;;6.60;1.80;;;29.90;34.60;;;;;;5013039;28;20523;-71
2021/09/03 08:35:11;;;;;;;6.80;2.03;;;29.90;34.80;;;;;;5013202;28;20068;-71
2021/09/03 08:37:39;;;;;;;2.03;1.55;;;29.80;34.80;;;;;;5012874;28;20224;-71
2021/09/03 08:40:08;;;;;;;3.97;1.35;;;29.80;35.00;;;;;;5013129;28;20366;-72
2021/09/03 08:42:37;;;;;;;7.97;3.92;;;29.80;35.10;;;;;;5012798;28;20046;-71
2021/09/03 08:45:08;;;;;;;7.05;2.30;;;29.70;34.70;;;;;;5012961;28;20029;-71
2021/09/03 08:47:34;;;;;;;2.78;1.58;;;29.50;34.50;;;;;;5013221;28;20396;-72
2021/09/03 08:50:00;;;;;;;5.30;2.08;;;29.40;34.40;;;;;;5012661;28;20026;-71
2021/09/03 08:52:26;;;;;;;7.40;1.90;;;29.30;34.80;;;;;;5012552;28;20033;-70
2021/09/03 08:54:52;;;;;;;5.60;2.10;;;29.20;35.10;;;;;;5012882;28;20022;-72
2021/09/03 08:57:17;;;;;;;2.05;1.58;;;29.10;35.40;;;;;;5012289;28;20037;-72
2021/09/03 08:59:43;;;;;;;2.58;1.88;;;29.00;35.50;;;;;;5012321;28;20168;-71
2021/09/03 09:02:13;;;;;;;4.22;1.60;;;29.00;35.90;;;;;;5012156;28;20434;-72
2021/09/03 09:04:41;;;;;;;4.97;1.60;;;28.90;35.50;;;;;;5012110;28;20403;-73
2021/09/03 09:07:07;;;;;;;6.60;3.13;;;28.70;35.70;;;;;;5012598;28;20041;-72
2021/09/03 09:09:38;;;;;;;4.55;2.30;;;28.70;35.30;;;;;;5012460;28;20040;-71
2021/09/03 09:12:10;;;;;;;3.85;1.60;;;28.50;35.60;;;;;;5012055;28;20026;-71
2021/09/03 09:15:03;;;;;;;3.20;1.67;;;28.50;35.90;;;;;;5012165;28;20030;-70
2021/09/03 09:17:36;;;;;;;7.47;1.55;;;28.40;35.50;;;;;;5012319;28;20092;-71
2021/09/03 09:20:05;;;;;;;6.20;2.40;;;28.20;35.40;;;;;;5012285;28;20053;-71
2021/09/03 09:22:54;;;;;;;3.63;1.58;;;28.00;35.60;;;;;;4994627;28;20028;-71
2021/09/03 09:25:24;;;;;;;1.63;1.27;;;27.90;35.70;;;;;;4979210;28;20388;-70
2021/09/03 09:27:50;;;;;;;2.88;1.75;;;27.90;36.10;;;;;;4992239;28;20026;-72
2021/09/03 09:30:23;;;;;;;7.60;1.80;;;27.80;36.20;;;;;;4999096;28;20065;-71
2021/09/03 09:33:19;;;;;;;4.88;1.45;;;27.60;36.30;;;;;;5000116;28;20022;-71
2021/09/03 09:35:54;;;;;;;3.65;2.25;;;27.60;36.60;;;;;;4975881;28;20038;-71
2021/09/03 09:38:28;;;;;;;4.47;1.67;;;27.50;36.50;;;;;;4999481;28;20113;-71
2021/09/03 09:41:02;;;;;;;1.58;1.10;;;27.50;36.80;;;;;;4999611;28;20025;-72
2021/09/03 09:43:42;;;;;;;3.15;1.92;;;27.60;36.70;;;;;;4999928;28;20139;-71
2021/09/03 09:46:14;;;;;;;3.08;1.27;;;27.40;36.20;;;;;;4982447;28;20074;-71
2021/09/03 09:48:49;;;;;;;7.85;4.50;;;27.20;36.30;;;;;;4999099;28;20022;-71
2021/09/03 09:51:30;;;;;;;4.25;1.73;;;27.10;36.70;;;;;;4999285;28;20084;-70
2021/09/03 09:54:11;;;;;;;4.00;1.77;;;27.10;36.90;;;;;;5000879;28;20062;-72
2021/09/03 09:56:41;;;;;;;2.77;1.10;;;27.10;37.10;;;;;;4983580;28;20026;-71
2021/09/03 09:59:09;;;;;;;3.90;1.58;;;27.30;36.80;;;;;;5000044;28;20097;-71
2021/09/03 10:01:37;;;;;;;4.43;1.60;;;27.30;36.80;;;;;;4999227;28;20046;-73
2021/09/03 10:04:06;;;;;;;5.00;1.17;;;27.40;36.60;;;;;;5000546;28;20048;-71
2021/09/03 10:06:33;;;;;;;2.53;1.20;;;27.50;36.70;;;;;;5000513;28;20046;-72
2021/09/03 10:09:00;;;;;;;2.92;1.50;;;27.60;36.90;;;;;;4998608;28;20446;-72
2021/09/03 10:11:26;;;;;;;3.10;2.20;;;27.50;36.70;;;;;;4999815;28;20024;-72
2021/09/03 10:13:54;;;;;;;4.97;2.25;;;27.40;36.60;;;;;;5000478;28;20487;-70
2021/09/03 10:16:19;;;;;;;2.83;2.47;;;27.40;36.70;;;;;;5003118;28;20069;-72
2021/09/03 10:18:49;;;;;;;3.05;1.30;;;27.40;36.60;;;;;;5004126;28;20030;-70
2021/09/03 10:21:15;;;;;;;5.82;1.98;;;27.50;37.20;;;;;;5005014;28;20413;-70
2021/09/03 10:23:59;;;;;;;4.30;1.67;;;27.70;36.80;;;;;;5003404;28;20483;-70
2021/09/03 10:26:31;;;;;;;2.58;1.50;;;27.60;36.60;;;;;;5003539;28;20040;-70
2021/09/03 10:29:13;;;;;;;1.92;1.17;;;27.70;36.60;;;;;;5002807;28;20073;-70
2021/09/03 10:32:03;;;;;;;6.25;1.73;;;27.70;36.70;;;;;;5003099;28;20469;-70
2021/09/03 10:34:42;;;;;;;2.50;1.83;;;27.80;36.40;;;;;;5004037;28;20353;-71
2021/09/03 10:37:14;;;;;;;5.00;1.95;;;27.70;36.60;;;;;;4986344;28;20363;-70
2021/09/03 10:39:43;;;;;;;;;;;27.60;36.40;;;;;;5003042;28;20432;-71
2021/09/03 10:42:10;;;;;;;2.00;1.88;;;27.30;36.40;;;;;;4985733;28;19960;-71
2021/09/03 10:45:07;;;;;;;1.70;1.60;;;27.00;36.50;;;;;;5004639;28;20034;-71
2021/09/03 10:47:37;;;;;;;4.43;2.55;;;26.80;36.60;;;;;;4987092;28;20145;-71
2021/09/03 10:50:16;;;;;;;2.17;1.17;;;26.70;37.10;;;;;;5003334;28;20015;-70
2021/09/03 10:53:27;;;;;;;4.03;1.40;;;26.80;37.40;;;;;;5003032;28;20015;-70
2021/09/03 10:56:01;;;;;;;3.83;1.40;;;26.70;37.00;;;;;;4925838;29;20142;-69
2021/09/03 10:58:51;;;;;;;1.75;1.27;;;26.70;37.10;;;;;;4925000;29;20111;-68
2021/09/03 11:01:26;;;;;;;7.28;1.50;;;26.60;37.40;;;;;;4925224;29;20080;-71
2021/09/03 11:03:59;;;;;;;2.67;1.20;;;26.60;37.50;;;;;;4923586;29;20079;-71
2021/09/03 11:06:27;;;;;;;5.55;1.95;;;26.60;37.50;;;;;;4924700;29;20028;-71
2021/09/03 11:08:58;;;;;;;2.60;1.60;;;26.50;37.30;;;;;;4924851;29;20099;-71
2021/09/03 11:11:27;;;;;;;3.47;1.50;;;26.50;37.10;;;;;;4926904;29;20027;-71
2021/09/03 11:14:02;;;;;;;3.72;1.58;;;26.20;37.40;;;;;;4924125;29;20040;-72
2021/09/03 11:16:38;;;;;;;7.25;1.90;;;26.00;37.50;;;;;;4924044;29;20027;-71
2021/09/03 11:19:05;;;;;;;4.63;2.05;;;25.90;37.90;;;;;;4924451;29;20058;-72
2021/09/03 11:21:31;;;;;;;1.75;1.33;;;25.90;38.20;;;;;;4924231;29;20831;-72
2021/09/03 11:23:58;;;;;;;4.68;1.77;;;25.90;38.10;;;;;;4923082;29;20466;-71
2021/09/03 11:26:25;;;;;;;5.43;2.75;;;25.80;38.10;;;;;;4959764;28;20048;-71
2021/09/03 11:28:51;;;;;;;5.47;1.90;;;25.60;38.20;;;;;;5003659;28;20865;-71
2021/09/03 11:31:17;;;;;;;5.68;2.00;;;25.60;38.40;;;;;;5002072;28;20028;-70
2021/09/03 11:33:46;;;;;;;2.78;1.63;;;25.80;38.70;;;;;;5003581;28;20030;-70
2021/09/03 11:36:13;;;;;;;3.70;2.20;;;25.90;38.60;;;;;;5003653;28;20046;-70
2021/09/03 11:38:40;;;;;;;6.47;2.70;;;26.00;38.50;;;;;;5001879;28;20026;-70
2021/09/03 11:41:11;;;;;;;3.75;1.90;;;26.10;38.40;;;;;;4985881;28;20650;-69
2021/09/03 11:43:37;;;;;;;7.55;1.92;;;26.10;38.30;;;;;;5003458;28;20037;-69
2021/09/03 11:46:16;;;;;;;2.33;1.40;;;26.10;38.40;;;;;;5001922;28;20076;-70
2021/09/03 11:48:44;;;;;;;1.90;1.67;;;25.90;38.10;;;;;;5001576;28;20019;-70
2021/09/03 11:51:15;;;;;;;4.63;1.95;;;25.60;38.40;;;;;;5002421;28;20096;-70
2021/09/03 11:53:41;;;;;;;5.75;1.58;;;25.50;38.80;;;;;;5001932;28;20014;-69
2021/09/03 11:56:13;;;;;;;3.58;1.58;;;25.40;39.00;;;;;;5002565;28;20099;-70
2021/09/03 11:58:39;;;;;;;6.35;1.67;;;25.40;39.10;;;;;;5003610;28;20022;-70
2021/09/03 12:01:07;;;;;;;4.68;1.90;;;25.40;38.90;;;;;;5001668;28;20037;-70
2021/09/03 12:03:36;;;;;;;4.70;1.70;;;25.30;38.70;;;;;;4983898;28;20038;-69
2021/09/03 12:06:05;;;;;;;4.55;1.48;;;25.10;38.80;;;;;;5001343;28;20049;-70
2021/09/03 12:08:36;;;;;;;8.13;4.00;;;24.90;39.10;;;;;;5001855;28;20116;-70
2021/09/03 12:11:23;;;;;;;9.57;2.35;;;24.70;39.40;;;;;;5001500;28;20381;-74
2021/09/03 12:13:56;;;;;;;6.47;1.40;;;24.60;39.80;;;;;;5002018;28;20105;-75
2021/09/03 12:16:27;;;;;;;2.70;1.52;;;24.50;39.80;;;;;;5001360;28;20471;-73
2021/09/03 12:18:57;;;;;;;17.73;2.40;;;24.60;40.00;;;;;;5002186;28;20047;-75
2021/09/03 12:21:40;;;;;;;3.67;1.77;;;24.60;40.10;;;;;;5001021;28;20029;-75
2021/09/03 12:24:11;;;;;;;2.30;1.70;;;24.60;39.80;;;;;;4983730;28;20034;-77
2021/09/03 12:26:47;;;;;;;4.43;2.45;;;24.60;39.90;;;;;;5000842;28;20019;-74
2021/09/03 12:29:14;;;;;;;3.25;1.70;;;24.70;40.20;;;;;;4983638;28;20420;-74
2021/09/03 12:31:50;;;;;;;4.18;2.95;;;24.70;40.00;;;;;;5002784;28;20476;-74
2021/09/03 12:34:16;;;;;;;5.80;2.20;;;24.70;39.90;;;;;;5003003;28;20080;-75
2021/09/03 12:36:42;;;;;;;3.47;1.70;;;24.80;40.00;;;;;;5000485;28;20026;-75
2021/09/03 12:39:13;;;;;;;6.90;1.88;;;24.80;39.90;;;;;;5000398;28;20026;-74
2021/09/03 12:41:41;;;;;;;3.65;1.70;;;24.80;40.00;;;;;;5000541;28;20050;-76
2021/09/03 12:44:22;;;;;;;2.75;1.58;;;24.70;40.20;;;;;;5001995;28;20407;-73
2021/09/03 12:46:50;;;;;;;5.13;2.05;;;24.70;40.20;;;;;;5001607;28;20025;-75
2021/09/03 12:49:27;;;;;;;3.25;2.28;;;24.60;40.20;;;;;;5001136;28;20165;-73
2021/09/03 12:52:01;;;;;;;6.20;3.22;;;24.50;40.40;;;;;;5002064;28;20023;-75